sensor_id;sensor_type;location;lat;lon;timestamp;temperature;humidity
4079;DHT22;2054;47.858;11.156;2024-03-17T03:45:50;8.10;99.90
4079;DHT22;2054;47.858;11.156;2024-03-17T03:48:17;8.10;99.90
4079;DHT22;2054;47.858;11.156;2024-03-17T03:50:44;8.10;99.90
4079;DHT22;2054;47.858;11.156;2024-03-17T03:53:11;8.10;99.90
4079;DHT22;2054;47.858;11.156;2024-03-17T03:55:38;8.10;99.90
4079;DHT22;2054;47.858;11.156;2024-03-17T03:58:05;8.20;99.90
4079;DHT22;2054;47.858;11.156;2024-03-17T04:00:32;8.20;99.90
4079;DHT22;2054;47.858;11.156;2024-03-17T04:03:02;8.20;99.90
4079;DHT22;2054;47.858;11.156;2024-03-17T04:05:29;8.10;99.90
4079;DHT22;2054;47.858;11.156;2024-03-17T04:08:00;7.90;99.90
4079;DHT22;2054;47.858;11.156;2024-03-17T04:10:28;7.80;99.90
4079;DHT22;2054;47.858;11.156;2024-03-17T04:12:56;7.90;99.90
4079;DHT22;2054;47.858;11.156;2024-03-17T04:15:23;7.80;99.90
4079;DHT22;2054;47.858;11.156;2024-03-17T04:17:50;7.80;99.90
4079;DHT22;2054;47.858;11.156;2024-03-17T04:20:19;7.80;99.90
4079;DHT22;2054;47.858;11.156;2024-03-17T04:22:46;7.80;99.90
4079;DHT22;2054;47.858;11.156;2024-03-17T04:25:14;7.70;99.90
4079;DHT22;2054;47.858;11.156;2024-03-17T04:27:41;7.70;99.90
4079;DHT22;2054;47.858;11.156;2024-03-17T04:30:08;7.60;99.90
4079;DHT22;2054;47.858;11.156;2024-03-17T04:32:37;7.60;99.90
4079;DHT22;2054;47.858;11.156;2024-03-17T04:35:06;7.50;99.90
4079;DHT22;2054;47.858;11.156;2024-03-17T04:37:35;7.50;99.90
4079;DHT22;2054;47.858;11.156;2024-03-17T04:40:06;7.60;99.90
4079;DHT22;2054;47.858;11.156;2024-03-17T04:42:35;7.50;99.90
4079;DHT22;2054;47.858;11.156;2024-03-17T04:45:05;7.40;99.90
4079;DHT22;2054;47.858;11.156;2024-03-17T04:47:33;7.40;99.90
4079;DHT22;2054;47.858;11.156;2024-03-17T04:50:02;7.40;99.90
4079;DHT22;2054;47.858;11.156;2024-03-17T04:52:29;7.40;99.90
4079;DHT22;2054;47.858;11.156;2024-03-17T04:54:58;7.30;99.90
4079;DHT22;2054;47.858;11.156;2024-03-17T04:57:25;7.30;99.90
4079;DHT22;2054;47.858;11.156;2024-03-17T04:59:52;7.40;99.90
4079;DHT22;2054;47.858;11.156;2024-03-17T05:02:19;7.40;99.90
4079;DHT22;2054;47.858;11.156;2024-03-17T05:04:47;7.50;99.90
4079;DHT22;2054;47.858;11.156;2024-03-17T05:07:14;7.70;99.90
4079;DHT22;2054;47.858;11.156;2024-03-17T05:09:40;7.50;99.90
4079;DHT22;2054;47.858;11.156;2024-03-17T05:12:12;7.50;99.90
4079;DHT22;2054;47.858;11.156;2024-03-17T05:14:40;7.60;99.90
4079;DHT22;2054;47.858;11.156;2024-03-17T05:17:07;7.50;99.90
4079;DHT22;2054;47.858;11.156;2024-03-17T05:19:34;7.50;99.90
4079;DHT22;2054;47.858;11.156;2024-03-17T05:22:02;7.50;99.90
4079;DHT22;2054;47.858;11.156;2024-03-17T05:24:29;7.50;99.90
4079;DHT22;2054;47.858;11.156;2024-03-17T05:26:57;7.50;99.90
4079;DHT22;2054;47.858;11.156;2024-03-17T05:29:25;7.40;99.90
4079;DHT22;2054;47.858;11.156;2024-03-17T05:31:51;7.50;99.90
4079;DHT22;2054;47.858;11.156;2024-03-17T05:34:18;7.50;99.90
4079;DHT22;2054;47.858;11.156;2024-03-17T05:36:45;7.50;99.90
4079;DHT22;2054;47.858;11.156;2024-03-17T05:39:12;7.60;99.90
4079;DHT22;2054;47.858;11.156;2024-03-17T05:41:40;7.60;99.90
4079;DHT22;2054;47.858;11.156;2024-03-17T05:44:09;7.60;99.90
4079;DHT22;2054;47.858;11.156;2024-03-17T05:46:37;7.60;99.90
4079;DHT22;2054;47.858;11.156;2024-03-17T05:49:04;7.40;99.90
4079;DHT22;2054;47.858;11.156;2024-03-17T05:51:32;7.40;99.90
4079;DHT22;2054;47.858;11.156;2024-03-17T05:53:59;7.50;99.90
4079;DHT22;2054;47.858;11.156;2024-03-17T05:56:26;7.40;99.90
4079;DHT22;2054;47.858;11.156;2024-03-17T05:58:53;7.50;99.90
4079;DHT22;2054;47.858;11.156;2024-03-17T06:01:19;7.50;99.90
4079;DHT22;2054;47.858;11.156;2024-03-17T06:03:49;7.50;99.90
4079;DHT22;2054;47.858;11.156;2024-03-17T06:06:16;7.60;99.90
4079;DHT22;2054;47.858;11.156;2024-03-17T06:08:45;7.60;99.90
4079;DHT22;2054;47.858;11.156;2024-03-17T06:11:12;7.50;99.90
4079;DHT22;2054;47.858;11.156;2024-03-17T06:13:39;7.50;99.90
4079;DHT22;2054;47.858;11.156;2024-03-17T06:16:06;7.60;99.90
4079;DHT22;2054;47.858;11.156;2024-03-17T06:18:33;7.60;99.90
4079;DHT22;2054;47.858;11.156;2024-03-17T06:21:16;7.70;99.90
4079;DHT22;2054;47.858;11.156;2024-03-17T06:23:43;7.80;99.90
4079;DHT22;2054;47.858;11.156;2024-03-17T06:26:12;8.00;99.90
4079;DHT22;2054;47.858;11.156;2024-03-17T06:28:39;8.10;99.90
4079;DHT22;2054;47.858;11.156;2024-03-17T06:31:08;8.30;99.90
4079;DHT22;2054;47.858;11.156;2024-03-17T06:33:35;8.40;99.90
4079;DHT22;2054;47.858;11.156;2024-03-17T06:36:03;8.50;99.90
4079;DHT22;2054;47.858;11.156;2024-03-17T06:38:32;8.60;99.90
4079;DHT22;2054;47.858;11.156;2024-03-17T06:41:00;8.80;99.90
4079;DHT22;2054;47.858;11.156;2024-03-17T06:48:22;9.20;99.90
4079;DHT22;2054;47.858;11.156;2024-03-17T06:50:49;9.10;99.90
4079;DHT22;2054;47.858;11.156;2024-03-17T06:53:18;9.20;99.90
4079;DHT22;2054;47.858;11.156;2024-03-17T06:55:53;9.20;99.90
4079;DHT22;2054;47.858;11.156;2024-03-17T06:58:21;9.30;99.90
4079;DHT22;2054;47.858;11.156;2024-03-17T07:00:53;9.50;99.90
4079;DHT22;2054;47.858;11.156;2024-03-17T07:03:19;9.60;99.90
4079;DHT22;2054;47.858;11.156;2024-03-17T07:05:51;9.60;99.90
4079;DHT22;2054;47.858;11.156;2024-03-17T07:08:18;9.80;99.90
4079;DHT22;2054;47.858;11.156;2024-03-17T07:10:56;9.70;99.90
4079;DHT22;2054;47.858;11.156;2024-03-17T07:13:23;9.60;99.90
4079;DHT22;2054;47.858;11.156;2024-03-17T07:15:50;9.70;99.90
4079;DHT22;2054;47.858;11.156;2024-03-17T07:18:20;9.80;99.90
4079;DHT22;2054;47.858;11.156;2024-03-17T07:20:47;9.90;99.90
4079;DHT22;2054;47.858;11.156;2024-03-17T07:23:14;9.90;99.90
4079;DHT22;2054;47.858;11.156;2024-03-17T07:25:42;10.10;99.90
4079;DHT22;2054;47.858;11.156;2024-03-17T07:28:10;10.00;99.90
4079;DHT22;2054;47.858;11.156;2024-03-17T07:30:37;9.90;99.90
4079;DHT22;2054;47.858;11.156;2024-03-17T07:33:12;10.00;99.90
4079;DHT22;2054;47.858;11.156;2024-03-17T07:35:47;10.10;99.90
4079;DHT22;2054;47.858;11.156;2024-03-17T07:38:14;10.10;99.90
4079;DHT22;2054;47.858;11.156;2024-03-17T07:40:43;10.00;99.90
4079;DHT22;2054;47.858;11.156;2024-03-17T07:43:12;10.10;99.90
4079;DHT22;2054;47.858;11.156;2024-03-17T07:45:40;10.20;99.90
4079;DHT22;2054;47.858;11.156;2024-03-17T07:48:11;10.20;99.90
4079;DHT22;2054;47.858;11.156;2024-03-17T07:50:39;10.00;99.90
4079;DHT22;2054;47.858;11.156;2024-03-17T07:53:05;9.80;99.90
4079;DHT22;2054;47.858;11.156;2024-03-17T07:55:32;9.70;99.90
4079;DHT22;2054;47.858;11.156;2024-03-17T07:58:00;9.60;99.90
4079;DHT22;2054;47.858;11.156;2024-03-17T08:00:29;9.60;99.90
4079;DHT22;2054;47.858;11.156;2024-03-17T08:02:56;9.50;99.90
4079;DHT22;2054;47.858;11.156;2024-03-17T08:05:23;9.60;99.90
4079;DHT22;2054;47.858;11.156;2024-03-17T08:07:52;9.60;99.90
4079;DHT22;2054;47.858;11.156;2024-03-17T08:10:19;9.70;99.90
4079;DHT22;2054;47.858;11.156;2024-03-17T08:12:47;9.80;99.90
4079;DHT22;2054;47.858;11.156;2024-03-17T08:15:14;9.90;99.90
4079;DHT22;2054;47.858;11.156;2024-03-17T08:17:42;10.10;99.90
4079;DHT22;2054;47.858;11.156;2024-03-17T08:20:11;10.20;99.90
4079;DHT22;2054;47.858;11.156;2024-03-17T08:22:38;10.30;99.90
4079;DHT22;2054;47.858;11.156;2024-03-17T08:25:05;10.50;99.90
4079;DHT22;2054;47.858;11.156;2024-03-17T08:27:32;10.40;99.90
4079;DHT22;2054;47.858;11.156;2024-03-17T08:30:00;10.50;99.90
4079;DHT22;2054;47.858;11.156;2024-03-17T08:32:27;10.70;99.90
4079;DHT22;2054;47.858;11.156;2024-03-17T08:34:56;10.70;99.90
4079;DHT22;2054;47.858;11.156;2024-03-17T08:37:23;10.80;99.90
4079;DHT22;2054;47.858;11.156;2024-03-17T08:39:51;11.00;99.90
4079;DHT22;2054;47.858;11.156;2024-03-17T08:42:17;11.20;99.90
4079;DHT22;2054;47.858;11.156;2024-03-17T08:44:46;11.40;99.90
4079;DHT22;2054;47.858;11.156;2024-03-17T08:47:13;11.40;99.90
4079;DHT22;2054;47.858;11.156;2024-03-17T08:49:40;11.40;99.90
4079;DHT22;2054;47.858;11.156;2024-03-17T08:52:08;11.40;99.90
4079;DHT22;2054;47.858;11.156;2024-03-17T08:54:35;11.50;99.90
4079;DHT22;2054;47.858;11.156;2024-03-17T08:57:02;11.60;99.90
4079;DHT22;2054;47.858;11.156;2024-03-17T08:59:29;11.80;99.90
4079;DHT22;2054;47.858;11.156;2024-03-17T09:01:56;12.00;99.90
4079;DHT22;2054;47.858;11.156;2024-03-17T09:04:24;12.10;99.90
4079;DHT22;2054;47.858;11.156;2024-03-17T09:06:51;12.20;99.90
4079;DHT22;2054;47.858;11.156;2024-03-17T09:09:21;12.30;99.90
4079;DHT22;2054;47.858;11.156;2024-03-17T09:11:48;12.30;99.90
4079;DHT22;2054;47.858;11.156;2024-03-17T09:14:16;12.50;99.90
4079;DHT22;2054;47.858;11.156;2024-03-17T09:16:42;12.60;99.90
4079;DHT22;2054;47.858;11.156;2024-03-17T09:19:10;12.70;99.90
4079;DHT22;2054;47.858;11.156;2024-03-17T09:21:36;12.90;99.90
4079;DHT22;2054;47.858;11.156;2024-03-17T09:24:05;13.00;99.90
4079;DHT22;2054;47.858;11.156;2024-03-17T09:26:35;13.10;99.90
4079;DHT22;2054;47.858;11.156;2024-03-17T09:29:03;13.20;99.90
4079;DHT22;2054;47.858;11.156;2024-03-17T09:31:33;13.10;99.90
4079;DHT22;2054;47.858;11.156;2024-03-17T09:34:01;13.10;99.90
4079;DHT22;2054;47.858;11.156;2024-03-17T09:36:28;13.10;99.90
4079;DHT22;2054;47.858;11.156;2024-03-17T09:38:56;13.20;99.90
4079;DHT22;2054;47.858;11.156;2024-03-17T09:41:24;13.40;99.90
4079;DHT22;2054;47.858;11.156;2024-03-17T09:43:55;13.40;99.90
4079;DHT22;2054;47.858;11.156;2024-03-17T09:46:22;13.60;99.90
4079;DHT22;2054;47.858;11.156;2024-03-17T09:48:51;13.70;99.90
4079;DHT22;2054;47.858;11.156;2024-03-17T09:51:19;13.90;99.90
4079;DHT22;2054;47.858;11.156;2024-03-17T09:53:47;13.80;99.90
4079;DHT22;2054;47.858;11.156;2024-03-17T09:56:15;14.00;99.90
4079;DHT22;2054;47.858;11.156;2024-03-17T09:58:44;14.10;99.90
4079;DHT22;2054;47.858;11.156;2024-03-17T10:01:13;14.20;99.90
4079;DHT22;2054;47.858;11.156;2024-03-17T10:03:43;14.30;99.90
4079;DHT22;2054;47.858;11.156;2024-03-17T10:06:11;14.40;99.90
4079;DHT22;2054;47.858;11.156;2024-03-17T10:08:42;14.40;99.90
4079;DHT22;2054;47.858;11.156;2024-03-17T10:11:10;14.50;99.90
4079;DHT22;2054;47.858;11.156;2024-03-17T10:13:40;14.60;99.90
4079;DHT22;2054;47.858;11.156;2024-03-17T10:16:21;14.70;99.90
4079;DHT22;2054;47.858;11.156;2024-03-17T10:18:49;14.80;99.90
4079;DHT22;2054;47.858;11.156;2024-03-17T10:21:27;14.80;99.90
4079;DHT22;2054;47.858;11.156;2024-03-17T10:24:06;14.80;99.90
4079;DHT22;2054;47.858;11.156;2024-03-17T10:26:37;14.80;99.90
4079;DHT22;2054;47.858;11.156;2024-03-17T10:29:13;14.90;99.90
4079;DHT22;2054;47.858;11.156;2024-03-17T10:31:45;15.00;99.90
4079;DHT22;2054;47.858;11.156;2024-03-17T10:34:15;15.10;99.90
4079;DHT22;2054;47.858;11.156;2024-03-17T10:36:44;15.10;99.90
4079;DHT22;2054;47.858;11.156;2024-03-17T10:39:27;14.70;99.90
4079;DHT22;2054;47.858;11.156;2024-03-17T10:42:00;14.70;99.90
4079;DHT22;2054;47.858;11.156;2024-03-17T10:44:28;14.40;99.90
4079;DHT22;2054;47.858;11.156;2024-03-17T10:47:00;14.50;99.90
4079;DHT22;2054;47.858;11.156;2024-03-17T10:49:30;14.50;99.90
4079;DHT22;2054;47.858;11.156;2024-03-17T10:51:59;14.60;99.90
4079;DHT22;2054;47.858;11.156;2024-03-17T10:54:27;14.90;99.90
4079;DHT22;2054;47.858;11.156;2024-03-17T10:57:07;14.90;99.90
4079;DHT22;2054;47.858;11.156;2024-03-17T10:59:42;15.10;99.90
4079;DHT22;2054;47.858;11.156;2024-03-17T11:02:22;15.20;99.90
4079;DHT22;2054;47.858;11.156;2024-03-17T11:07:31;15.30;99.90
4079;DHT22;2054;47.858;11.156;2024-03-17T11:09:59;15.40;99.90
4079;DHT22;2054;47.858;11.156;2024-03-17T11:12:46;15.50;99.90
4079;DHT22;2054;47.858;11.156;2024-03-17T11:20:42;15.40;99.90
4079;DHT22;2054;47.858;11.156;2024-03-17T11:23:26;15.40;99.90
4079;DHT22;2054;47.858;11.156;2024-03-17T11:25:55;15.20;99.90
4079;DHT22;2054;47.858;11.156;2024-03-17T11:28:51;15.00;99.90
4079;DHT22;2054;47.858;11.156;2024-03-17T11:34:03;15.20;99.90
4079;DHT22;2054;47.858;11.156;2024-03-17T11:36:36;15.40;99.90
4079;DHT22;2054;47.858;11.156;2024-03-17T11:39:10;15.70;99.90
4079;DHT22;2054;47.858;11.156;2024-03-17T11:41:53;15.80;99.90
4079;DHT22;2054;47.858;11.156;2024-03-17T11:49:20;15.70;99.90
4079;DHT22;2054;47.858;11.156;2024-03-17T11:51:49;16.00;99.90
4079;DHT22;2054;47.858;11.156;2024-03-17T11:54:24;16.40;99.90
4079;DHT22;2054;47.858;11.156;2024-03-17T11:56:54;16.80;99.90
4079;DHT22;2054;47.858;11.156;2024-03-17T11:59:20;17.10;99.90
4079;DHT22;2054;47.858;11.156;2024-03-17T12:01:50;17.20;99.90
4079;DHT22;2054;47.858;11.156;2024-03-17T12:04:18;17.10;99.90
4079;DHT22;2054;47.858;11.156;2024-03-17T12:09:30;16.80;99.90
4079;DHT22;2054;47.858;11.156;2024-03-17T12:12:06;16.50;99.90
4079;DHT22;2054;47.858;11.156;2024-03-17T12:14:33;16.40;99.90
4079;DHT22;2054;47.858;11.156;2024-03-17T12:16:59;16.40;99.90
4079;DHT22;2054;47.858;11.156;2024-03-17T12:19:26;16.50;99.90
4079;DHT22;2054;47.858;11.156;2024-03-17T12:21:58;16.70;99.90
4079;DHT22;2054;47.858;11.156;2024-03-17T12:24:29;16.80;99.90
4079;DHT22;2054;47.858;11.156;2024-03-17T12:26:57;17.00;99.90
4079;DHT22;2054;47.858;11.156;2024-03-17T12:29:36;17.10;99.90
4079;DHT22;2054;47.858;11.156;2024-03-17T12:32:23;17.30;99.90
4079;DHT22;2054;47.858;11.156;2024-03-17T12:34:53;17.50;99.90
4079;DHT22;2054;47.858;11.156;2024-03-17T12:37:27;17.30;99.90
4079;DHT22;2054;47.858;11.156;2024-03-17T12:40:00;17.30;99.90
4079;DHT22;2054;47.858;11.156;2024-03-17T12:42:27;17.30;99.90
4079;DHT22;2054;47.858;11.156;2024-03-17T12:44:57;17.30;99.90
4079;DHT22;2054;47.858;11.156;2024-03-17T12:47:24;17.30;99.90
4079;DHT22;2054;47.858;11.156;2024-03-17T12:49:52;17.20;99.90
4079;DHT22;2054;47.858;11.156;2024-03-17T12:57:45;16.50;99.90
4079;DHT22;2054;47.858;11.156;2024-03-17T13:00:31;16.00;99.90
4079;DHT22;2054;47.858;11.156;2024-03-17T13:02:58;16.00;99.90
4079;DHT22;2054;47.858;11.156;2024-03-17T13:05:23;16.30;99.90
4079;DHT22;2054;47.858;11.156;2024-03-17T13:07:50;16.40;99.90
4079;DHT22;2054;47.858;11.156;2024-03-17T13:10:19;16.60;99.90
4079;DHT22;2054;47.858;11.156;2024-03-17T13:12:46;17.00;99.90
4079;DHT22;2054;47.858;11.156;2024-03-17T13:15:16;17.20;99.90
4079;DHT22;2054;47.858;11.156;2024-03-17T13:17:45;17.30;99.90
4079;DHT22;2054;47.858;11.156;2024-03-17T13:20:17;17.10;99.90
4079;DHT22;2054;47.858;11.156;2024-03-17T13:22:44;16.80;99.90
4079;DHT22;2054;47.858;11.156;2024-03-17T13:25:24;16.90;99.90
4079;DHT22;2054;47.858;11.156;2024-03-17T13:27:50;17.00;99.90
4079;DHT22;2054;47.858;11.156;2024-03-17T13:30:17;17.10;99.90
4079;DHT22;2054;47.858;11.156;2024-03-17T13:32:43;17.40;99.90
4079;DHT22;2054;47.858;11.156;2024-03-17T13:35:17;17.60;99.90
4079;DHT22;2054;47.858;11.156;2024-03-17T13:37:45;17.40;99.90
4079;DHT22;2054;47.858;11.156;2024-03-17T13:40:11;17.20;99.90
4079;DHT22;2054;47.858;11.156;2024-03-17T13:42:38;17.10;99.90
4079;DHT22;2054;47.858;11.156;2024-03-17T13:45:05;16.90;99.90
4079;DHT22;2054;47.858;11.156;2024-03-17T13:47:35;16.80;99.90
4079;DHT22;2054;47.858;11.156;2024-03-17T13:50:00;16.60;99.90
4079;DHT22;2054;47.858;11.156;2024-03-17T13:52:26;16.60;99.90
4079;DHT22;2054;47.858;11.156;2024-03-17T13:54:51;16.50;99.90
4079;DHT22;2054;47.858;11.156;2024-03-17T13:57:17;16.40;99.90
4079;DHT22;2054;47.858;11.156;2024-03-17T13:59:43;16.50;99.90
4079;DHT22;2054;47.858;11.156;2024-03-17T14:02:12;16.50;99.90
4079;DHT22;2054;47.858;11.156;2024-03-17T14:04:38;16.70;99.90
4079;DHT22;2054;47.858;11.156;2024-03-17T14:07:05;16.40;99.90
4079;DHT22;2054;47.858;11.156;2024-03-17T14:09:31;16.40;99.90
4079;DHT22;2054;47.858;11.156;2024-03-17T14:12:00;16.30;99.90
4079;DHT22;2054;47.858;11.156;2024-03-17T14:14:26;16.30;99.90
4079;DHT22;2054;47.858;11.156;2024-03-17T14:16:52;16.50;99.90
4079;DHT22;2054;47.858;11.156;2024-03-17T14:19:19;16.60;99.90
4079;DHT22;2054;47.858;11.156;2024-03-17T14:21:44;16.70;99.90
4079;DHT22;2054;47.858;11.156;2024-03-17T14:24:10;16.80;99.90
4079;DHT22;2054;47.858;11.156;2024-03-17T14:26:36;16.90;99.90
4079;DHT22;2054;47.858;11.156;2024-03-17T14:29:02;16.80;99.90
4079;DHT22;2054;47.858;11.156;2024-03-17T14:31:34;16.80;99.90
4079;DHT22;2054;47.858;11.156;2024-03-17T14:34:03;16.90;99.90
4079;DHT22;2054;47.858;11.156;2024-03-17T14:36:33;16.80;99.90
4079;DHT22;2054;47.858;11.156;2024-03-17T14:38:59;16.70;99.90
4079;DHT22;2054;47.858;11.156;2024-03-17T14:41:30;16.70;99.90
4079;DHT22;2054;47.858;11.156;2024-03-17T14:43:56;16.60;99.90
4079;DHT22;2054;47.858;11.156;2024-03-17T14:46:23;16.60;99.90
4079;DHT22;2054;47.858;11.156;2024-03-17T14:48:48;16.60;99.90
4079;DHT22;2054;47.858;11.156;2024-03-17T14:51:19;16.50;99.90
4079;DHT22;2054;47.858;11.156;2024-03-17T14:53:47;16.40;99.90
4079;DHT22;2054;47.858;11.156;2024-03-17T14:56:18;16.40;99.90
4079;DHT22;2054;47.858;11.156;2024-03-17T14:58:44;16.30;99.90
4079;DHT22;2054;47.858;11.156;2024-03-17T15:01:11;16.20;99.90
4079;DHT22;2054;47.858;11.156;2024-03-17T15:03:37;16.20;99.90
4079;DHT22;2054;47.858;11.156;2024-03-17T15:06:08;16.10;99.90
4079;DHT22;2054;47.858;11.156;2024-03-17T15:08:34;16.20;99.90
4079;DHT22;2054;47.858;11.156;2024-03-17T15:11:02;16.40;99.90
4079;DHT22;2054;47.858;11.156;2024-03-17T15:13:28;16.30;99.90
4079;DHT22;2054;47.858;11.156;2024-03-17T15:15:54;16.10;99.90
4079;DHT22;2054;47.858;11.156;2024-03-17T15:18:23;16.00;99.90
4079;DHT22;2054;47.858;11.156;2024-03-17T15:20:55;16.00;99.90
4079;DHT22;2054;47.858;11.156;2024-03-17T15:23:21;16.00;99.90
4079;DHT22;2054;47.858;11.156;2024-03-17T15:25:47;16.10;99.90
4079;DHT22;2054;47.858;11.156;2024-03-17T15:28:12;16.00;99.90
4079;DHT22;2054;47.858;11.156;2024-03-17T15:30:38;16.00;99.90
4079;DHT22;2054;47.858;11.156;2024-03-17T15:33:05;15.90;99.90
4079;DHT22;2054;47.858;11.156;2024-03-17T15:35:30;15.70;99.90
4079;DHT22;2054;47.858;11.156;2024-03-17T15:37:57;15.40;99.90
4079;DHT22;2054;47.858;11.156;2024-03-17T15:40:23;15.20;99.90
4079;DHT22;2054;47.858;11.156;2024-03-17T15:42:49;14.80;99.90
4079;DHT22;2054;47.858;11.156;2024-03-17T15:45:16;14.50;99.90
4079;DHT22;2054;47.858;11.156;2024-03-17T15:47:46;14.30;99.90
4079;DHT22;2054;47.858;11.156;2024-03-17T15:50:13;14.00;99.90
4079;DHT22;2054;47.858;11.156;2024-03-17T15:52:40;13.80;99.90
4079;DHT22;2054;47.858;11.156;2024-03-17T15:55:08;13.70;99.90
4079;DHT22;2054;47.858;11.156;2024-03-17T15:57:34;13.70;99.90
4079;DHT22;2054;47.858;11.156;2024-03-17T16:00:00;13.70;99.90
4079;DHT22;2054;47.858;11.156;2024-03-17T16:02:26;13.70;99.90
4079;DHT22;2054;47.858;11.156;2024-03-17T16:04:52;13.70;99.90
4079;DHT22;2054;47.858;11.156;2024-03-17T16:07:19;13.60;99.90
4079;DHT22;2054;47.858;11.156;2024-03-17T16:09:46;13.60;99.90
4079;DHT22;2054;47.858;11.156;2024-03-17T16:12:13;13.60;99.90
4079;DHT22;2054;47.858;11.156;2024-03-17T16:14:41;13.60;99.90
4079;DHT22;2054;47.858;11.156;2024-03-17T16:17:10;13.40;99.90
4079;DHT22;2054;47.858;11.156;2024-03-17T16:19:36;13.50;99.90
4079;DHT22;2054;47.858;11.156;2024-03-17T16:22:03;13.50;99.90
4079;DHT22;2054;47.858;11.156;2024-03-17T16:24:32;13.50;99.90
4079;DHT22;2054;47.858;11.156;2024-03-17T16:26:58;13.40;99.90
4079;DHT22;2054;47.858;11.156;2024-03-17T16:29:24;13.40;99.90
4079;DHT22;2054;47.858;11.156;2024-03-17T16:31:49;13.40;99.90
4079;DHT22;2054;47.858;11.156;2024-03-17T16:34:18;13.50;99.90
4079;DHT22;2054;47.858;11.156;2024-03-17T16:36:46;13.40;99.90
4079;DHT22;2054;47.858;11.156;2024-03-17T16:39:13;13.30;99.90
4079;DHT22;2054;47.858;11.156;2024-03-17T16:41:40;13.20;99.90
4079;DHT22;2054;47.858;11.156;2024-03-17T16:44:11;13.10;99.90
4079;DHT22;2054;47.858;11.156;2024-03-17T16:49:24;13.10;99.90
4079;DHT22;2054;47.858;11.156;2024-03-17T16:51:52;13.10;99.90
4079;DHT22;2054;47.858;11.156;2024-03-17T16:54:18;13.00;99.90
4079;DHT22;2054;47.858;11.156;2024-03-17T16:56:45;12.90;99.90
4079;DHT22;2054;47.858;11.156;2024-03-17T16:59:10;12.90;99.90
4079;DHT22;2054;47.858;11.156;2024-03-17T17:01:38;12.90;99.90
4079;DHT22;2054;47.858;11.156;2024-03-17T17:04:06;12.80;99.90
4079;DHT22;2054;47.858;11.156;2024-03-17T17:06:32;12.90;99.90
4079;DHT22;2054;47.858;11.156;2024-03-17T17:08:58;12.90;99.90
4079;DHT22;2054;47.858;11.156;2024-03-17T17:11:23;12.90;99.90
4079;DHT22;2054;47.858;11.156;2024-03-17T17:13:50;12.80;99.90
4079;DHT22;2054;47.858;11.156;2024-03-17T17:16:16;12.70;99.90
4079;DHT22;2054;47.858;11.156;2024-03-17T17:19:02;12.70;99.90
4079;DHT22;2054;47.858;11.156;2024-03-17T17:21:30;12.70;99.90
4079;DHT22;2054;47.858;11.156;2024-03-17T17:23:57;12.70;99.90
4079;DHT22;2054;47.858;11.156;2024-03-17T17:26:24;12.70;99.90
4079;DHT22;2054;47.858;11.156;2024-03-17T17:28:58;12.60;99.90
4079;DHT22;2054;47.858;11.156;2024-03-17T17:31:26;12.60;99.90
4079;DHT22;2054;47.858;11.156;2024-03-17T17:33:53;12.60;99.90
4079;DHT22;2054;47.858;11.156;2024-03-17T17:36:20;12.50;99.90
4079;DHT22;2054;47.858;11.156;2024-03-17T17:38:46;12.30;99.90
4079;DHT22;2054;47.858;11.156;2024-03-17T17:41:12;12.30;99.90
4079;DHT22;2054;47.858;11.156;2024-03-17T17:43:45;12.30;99.90
4079;DHT22;2054;47.858;11.156;2024-03-17T17:46:13;12.20;99.90
4079;DHT22;2054;47.858;11.156;2024-03-17T17:48:41;12.20;99.90
4079;DHT22;2054;47.858;11.156;2024-03-17T17:51:16;12.20;99.90
4079;DHT22;2054;47.858;11.156;2024-03-17T17:53:44;12.20;99.90
4079;DHT22;2054;47.858;11.156;2024-03-17T17:56:11;12.20;99.90
4079;DHT22;2054;47.858;11.156;2024-03-17T17:58:38;12.20;99.90
4079;DHT22;2054;47.858;11.156;2024-03-17T18:01:07;12.20;99.90
4079;DHT22;2054;47.858;11.156;2024-03-17T18:03:34;12.10;99.90
4079;DHT22;2054;47.858;11.156;2024-03-17T18:06:04;12.10;99.90
4079;DHT22;2054;47.858;11.156;2024-03-17T18:08:31;12.10;99.90
4079;DHT22;2054;47.858;11.156;2024-03-17T18:11:01;12.10;99.90
4079;DHT22;2054;47.858;11.156;2024-03-17T18:13:28;12.10;99.90
4079;DHT22;2054;47.858;11.156;2024-03-17T18:16:00;12.00;99.90
4079;DHT22;2054;47.858;11.156;2024-03-17T18:18:29;12.00;99.90
4079;DHT22;2054;47.858;11.156;2024-03-17T18:20:57;12.00;99.90
4079;DHT22;2054;47.858;11.156;2024-03-17T18:23:26;12.00;99.90
4079;DHT22;2054;47.858;11.156;2024-03-17T18:25:52;12.10;99.90
4079;DHT22;2054;47.858;11.156;2024-03-17T18:28:19;12.10;99.90
4079;DHT22;2054;47.858;11.156;2024-03-17T18:30:50;12.10;99.90
4079;DHT22;2054;47.858;11.156;2024-03-17T18:33:19;12.20;99.90
4079;DHT22;2054;47.858;11.156;2024-03-17T18:35:49;12.30;99.90
4079;DHT22;2054;47.858;11.156;2024-03-17T18:38:16;12.30;99.90
4079;DHT22;2054;47.858;11.156;2024-03-17T18:40:42;12.40;99.90
4079;DHT22;2054;47.858;11.156;2024-03-17T18:43:07;12.40;99.90
4079;DHT22;2054;47.858;11.156;2024-03-17T18:45:33;12.50;99.90
4079;DHT22;2054;47.858;11.156;2024-03-17T18:47:59;12.40;99.90
4079;DHT22;2054;47.858;11.156;2024-03-17T18:50:25;12.40;99.90
4079;DHT22;2054;47.858;11.156;2024-03-17T18:52:51;12.50;99.90
4079;DHT22;2054;47.858;11.156;2024-03-17T18:55:17;12.50;99.90
4079;DHT22;2054;47.858;11.156;2024-03-17T18:57:44;12.50;99.90
4079;DHT22;2054;47.858;11.156;2024-03-17T19:00:16;12.50;99.90
4079;DHT22;2054;47.858;11.156;2024-03-17T19:02:49;12.60;99.90
4079;DHT22;2054;47.858;11.156;2024-03-17T19:05:16;12.60;99.90
4079;DHT22;2054;47.858;11.156;2024-03-17T19:07:42;12.50;99.90
4079;DHT22;2054;47.858;11.156;2024-03-17T19:10:08;12.50;99.90
4079;DHT22;2054;47.858;11.156;2024-03-17T19:12:35;12.50;99.90
4079;DHT22;2054;47.858;11.156;2024-03-17T19:15:01;12.30;99.90
4079;DHT22;2054;47.858;11.156;2024-03-17T19:17:31;12.50;99.90
4079;DHT22;2054;47.858;11.156;2024-03-17T19:19:58;12.30;99.90
4079;DHT22;2054;47.858;11.156;2024-03-17T19:22:27;12.20;99.90
4079;DHT22;2054;47.858;11.156;2024-03-17T19:24:55;12.10;99.90
4079;DHT22;2054;47.858;11.156;2024-03-17T19:27:21;12.10;99.90
4079;DHT22;2054;47.858;11.156;2024-03-17T19:29:47;12.10;99.90
4079;DHT22;2054;47.858;11.156;2024-03-17T19:32:13;12.00;99.90
4079;DHT22;2054;47.858;11.156;2024-03-17T19:34:39;12.10;99.90
4079;DHT22;2054;47.858;11.156;2024-03-17T19:37:10;12.00;99.90
4079;DHT22;2054;47.858;11.156;2024-03-17T19:39:36;12.00;99.90
4079;DHT22;2054;47.858;11.156;2024-03-17T19:42:02;12.00;99.90
4079;DHT22;2054;47.858;11.156;2024-03-17T19:44:30;12.10;99.90
4079;DHT22;2054;47.858;11.156;2024-03-17T19:46:55;12.00;99.90
4079;DHT22;2054;47.858;11.156;2024-03-17T19:49:21;11.90;99.90
4079;DHT22;2054;47.858;11.156;2024-03-17T19:51:48;11.80;99.90
4079;DHT22;2054;47.858;11.156;2024-03-17T19:54:14;11.80;99.90
4079;DHT22;2054;47.858;11.156;2024-03-17T19:56:41;11.90;99.90
4079;DHT22;2054;47.858;11.156;2024-03-17T19:59:08;11.90;99.90
4079;DHT22;2054;47.858;11.156;2024-03-17T20:01:34;11.90;99.90
4079;DHT22;2054;47.858;11.156;2024-03-17T20:04:00;11.80;99.90
4079;DHT22;2054;47.858;11.156;2024-03-17T20:06:26;11.80;99.90
4079;DHT22;2054;47.858;11.156;2024-03-17T20:08:54;11.80;99.90
4079;DHT22;2054;47.858;11.156;2024-03-17T20:11:20;11.80;99.90
4079;DHT22;2054;47.858;11.156;2024-03-17T20:13:50;11.80;99.90